Time;durP1;ratioP1;P1;durP2;ratioP2;P2;SDS_P1;SDS_P2;PMS_P1;PMS_P2;Temp;Humidity;BMP_temperature;BMP_pressure;BME280_temperature;BME280_humidity;BME280_pressure;Samples;Min_cycle;Max_cycle;Signal;HPM_P1;HPM_P2
2023/01/02 00:09:33;;;;;;;13.70;6.80;;;;;;;9.13;76.69;99223.83;420845;1291;99217;-41
2023/01/02 00:19:40;;;;;;;11.90;7.20;;;;;;;9.13;76.96;99217.83;420871;1298;112365;-41
2023/01/02 00:29:47;;;;;;;10.90;6.00;;;;;;;9.15;77.17;99209.29;420789;1292;109430;-40
2023/01/02 00:39:54;;;;;;;14.00;6.90;;;;;;;9.15;77.41;99197.48;420741;1298;98547;-41
2023/01/02 00:50:01;;;;;;;13.10;7.80;;;;;;;9.10;77.53;99194.45;420787;1290;110759;-41
2023/01/02 01:00:10;;;;;;;10.90;7.20;;;;;;;9.02;77.57;99187.66;420736;1286;98637;-40
2023/01/02 01:10:21;;;;;;;11.00;6.30;;;;;;;9.04;77.92;99182.55;420909;1291;111478;-41
2023/01/02 01:20:29;;;;;;;11.40;5.00;;;;;;;9.07;77.92;99178.19;420850;1298;108655;-41
2023/01/02 01:30:36;;;;;;;12.50;6.50;;;;;;;9.10;78.22;99172.50;421096;1291;98075;-41
2023/01/02 01:40:43;;;;;;;11.00;7.10;;;;;;;9.11;78.35;99169.77;420874;1298;108281;-40
2023/01/02 01:50:50;;;;;;;8.40;5.70;;;;;;;9.09;78.35;99167.79;421037;1298;98401;-40
2023/01/02 02:00:58;;;;;;;9.00;6.30;;;;;;;9.08;78.23;99166.05;420923;1291;111873;-40
2023/01/02 02:11:05;;;;;;;11.40;6.10;;;;;;;9.00;78.31;99157.13;420765;1295;108123;-41
2023/01/02 02:21:11;;;;;;;7.60;5.90;;;;;;;8.82;78.52;99149.02;420753;1298;99246;-41
2023/01/02 02:31:18;;;;;;;13.90;6.80;;;;;;;8.55;78.73;99132.30;420962;1291;109715;-41
2023/01/02 02:41:27;;;;;;;13.60;8.50;;;;;;;8.27;79.35;99105.57;421417;1275;619146;-40
2023/01/02 02:51:42;;;;;;;16.10;9.80;;;;;;;7.96;80.06;99088.48;420677;1299;112363;-41
2023/01/02 03:01:50;;;;;;;19.80;11.50;;;;;;;7.73;80.46;99090.43;420818;1298;108306;-39
2023/01/02 03:12:11;;;;;;;19.50;11.80;;;;;;;7.51;80.90;99079.86;420806;1297;99075;-40
2023/01/02 03:22:23;;;;;;;25.80;13.00;;;;;;;7.31;81.01;99083.77;420704;1298;107266;-40
2023/01/02 03:32:33;;;;;;;21.70;12.30;;;;;;;7.21;81.27;99079.81;420719;1292;99176;-40
2023/01/02 03:42:46;;;;;;;14.50;9.90;;;;;;;7.18;81.25;99070.22;420761;1291;110920;-40
2023/01/02 03:52:54;;;;;;;20.60;10.80;;;;;;;7.22;81.26;99074.27;420785;1295;107477;-41
2023/01/02 04:03:08;;;;;;;21.40;11.40;;;;;;;7.26;81.46;99072.81;420840;1298;98008;-41
2023/01/02 04:13:19;;;;;;;15.60;10.20;;;;;;;7.33;81.61;99078.63;420862;1298;108927;-39
2023/01/02 04:23:32;;;;;;;18.80;9.70;;;;;;;7.52;82.00;99063.39;420755;1300;99348;-40
2023/01/02 04:33:37;;;;;;;8.80;6.10;;;;;;;8.08;82.66;99059.31;420832;1292;111051;-41
2023/01/02 04:43:44;;;;;;;12.10;6.10;;;;;;;8.66;82.54;99056.36;420756;1286;107959;-41
2023/01/02 04:53:53;;;;;;;13.10;7.70;;;;;;;8.91;82.35;99058.27;420715;1298;99079;-40
2023/01/02 05:04:00;;;;;;;13.60;7.30;;;;;;;8.95;82.17;99050.63;420807;1298;107652;-39
2023/01/02 05:14:07;;;;;;;11.00;6.90;;;;;;;9.01;82.13;99061.54;420756;1291;97959;-40
2023/01/02 05:24:14;;;;;;;11.90;6.60;;;;;;;9.14;82.17;99060.34;420733;1284;110775;-41
2023/01/02 05:34:21;;;;;;;9.30;6.10;;;;;;;9.25;82.09;99063.17;420692;1287;106455;-41
2023/01/02 05:44:28;;;;;;;11.90;6.80;;;;;;;9.33;82.04;99048.89;420757;1298;99773;-41
2023/01/02 05:54:36;;;;;;;10.80;7.20;;;;;;;9.29;81.84;99038.80;420835;1291;108567;-41
2023/01/02 06:04:43;;;;;;;24.90;13.70;;;;;;;9.07;81.76;99027.85;420773;1291;99274;-41
2023/01/02 06:14:50;;;;;;;27.80;14.50;;;;;;;8.50;81.76;99025.95;420886;1298;113157;-40
2023/01/02 06:24:57;;;;;;;26.00;14.50;;;;;;;8.16;82.39;99025.20;420735;1291;109310;-41
2023/01/02 06:35:04;;;;;;;24.00;12.10;;;;;;;8.04;82.59;99027.42;420869;1298;99222;-40
2023/01/02 06:45:11;;;;;;;24.50;13.60;;;;;;;7.93;83.01;99023.42;420763;1298;108535;-40
2023/01/02 06:55:17;;;;;;;22.10;14.60;;;;;;;7.80;83.16;99015.89;420849;1294;99223;-39
2023/01/02 07:05:24;;;;;;;22.80;12.10;;;;;;;7.76;83.30;99008.42;420991;1298;111985;-38
2023/01/02 07:25:39;;;;;;;17.80;10.10;;;;;;;7.97;83.88;99014.07;420851;1298;99290;-40
2023/01/02 07:35:50;;;;;;;18.90;10.20;;;;;;;8.22;83.99;99011.09;420878;1298;108570;-42
2023/01/02 07:46:02;;;;;;;16.90;9.50;;;;;;;8.48;83.86;99015.61;420987;1298;99361;-40
2023/01/02 07:56:09;;;;;;;16.50;9.50;;;;;;;8.74;83.64;99013.92;420890;1298;111863;-39
2023/01/02 08:16:25;;;;;;;17.20;8.40;;;;;;;9.24;83.38;99005.56;420997;1298;99298;-40
2023/01/02 08:26:32;;;;;;;12.20;7.00;;;;;;;9.96;83.12;99004.28;420810;1291;107648;-40
2023/01/02 08:36:39;;;;;;;15.20;9.10;;;;;;;10.74;82.44;99001.35;420759;1294;98346;-41
2023/01/02 08:46:46;;;;;;;13.50;6.20;;;;;;;11.19;81.30;98988.11;420977;1294;111253;-40
2023/01/02 08:56:54;;;;;;;8.70;5.50;;;;;;;11.34;80.43;98983.52;420875;1290;107922;-40
2023/01/02 09:07:01;;;;;;;10.00;7.10;;;;;;;11.88;80.14;98982.21;420733;1298;99112;-41
2023/01/02 09:17:09;;;;;;;11.30;6.30;;;;;;;12.35;79.45;98982.92;420917;1299;108055;-40
2023/01/02 09:27:16;;;;;;;9.00;5.50;;;;;;;12.84;78.29;98970.77;420980;1290;98848;-40
2023/01/02 09:37:23;;;;;;;8.50;6.10;;;;;;;13.11;76.41;98955.85;420967;1291;111557;-41
2023/01/02 09:47:31;;;;;;;10.60;5.30;;;;;;;13.11;75.20;98948.18;420830;1290;108020;-40
2023/01/02 09:57:38;;;;;;;11.30;6.50;;;;;;;13.26;74.97;98937.81;421045;1291;99252;-41
2023/01/02 10:07:47;;;;;;;8.30;5.50;;;;;;;13.53;74.66;98939.01;420816;1298;108670;-40
2023/01/02 10:17:58;;;;;;;9.20;5.60;;;;;;;13.70;74.74;98934.33;420984;1291;98889;-41
2023/01/02 10:28:07;;;;;;;8.90;5.40;;;;;;;13.82;74.35;98925.98;420980;1291;111003;-40
2023/01/02 10:38:12;;;;;;;10.40;5.30;;;;;;;13.91;74.10;98917.20;420801;1298;107842;-40
2023/01/02 10:48:20;;;;;;;8.50;4.50;;;;;;;13.99;73.75;98914.67;420958;1292;98959;-41
2023/01/02 10:58:29;;;;;;;10.60;5.40;;;;;;;13.99;72.77;98912.46;420858;1291;108187;-39
2023/01/02 11:08:37;;;;;;;8.50;5.90;;;;;;;13.99;72.12;98900.33;421023;1290;98038;-40
2023/01/02 11:18:53;;;;;;;9.20;5.20;;;;;;;13.97;71.44;98889.14;420939;1295;111227;-40
2023/01/02 11:29:07;;;;;;;11.70;7.10;;;;;;;13.96;70.82;98869.59;420937;1298;107522;-41
2023/01/02 11:39:20;;;;;;;9.90;5.40;;;;;;;14.01;70.81;98869.63;420946;1291;99227;-41
2023/01/02 11:49:24;;;;;;;8.00;5.20;;;;;;;13.99;70.88;98872.00;420936;1292;107275;-40
2023/01/02 11:59:36;;;;;;;10.00;5.80;;;;;;;14.05;71.08;98858.45;420904;1292;99329;-41
2023/01/02 12:09:44;;;;;;;10.30;6.70;;;;;;;14.29;70.49;98844.06;420858;1298;113091;-42
2023/01/02 12:20:05;;;;;;;9.20;5.80;;;;;;;14.44;70.43;98846.23;420934;1292;107614;-41
2023/01/02 12:30:11;;;;;;;8.40;5.20;;;;;;;14.40;70.35;98841.80;420886;1298;98026;-41
2023/01/02 12:40:33;;;;;;;8.40;5.30;;;;;;;14.33;70.32;98832.30;420971;1298;107704;-40
2023/01/02 12:50:51;;;;;;;7.20;4.50;;;;;;;14.15;69.94;98816.02;420926;1295;99280;-41
2023/01/02 13:01:00;;;;;;;6.30;4.00;;;;;;;14.06;69.78;98821.66;420965;1291;111918;-40
2023/01/02 13:11:05;;;;;;;9.50;4.70;;;;;;;14.05;69.96;98827.13;420757;1295;107447;-39
2023/01/02 13:21:12;;;;;;;5.40;4.50;;;;;;;14.04;69.94;98828.23;420852;1290;99223;-40
2023/01/02 13:31:20;;;;;;;9.00;4.80;;;;;;;13.99;69.87;98846.45;420966;1298;108860;-43
2023/01/02 13:52:16;;;;;;;7.30;4.60;;;;;;;13.68;69.82;98875.48;420880;1283;111505;-41
2023/01/02 14:02:23;;;;;;;7.10;4.70;;;;;;;13.53;70.25;98875.05;420849;1298;107219;-41
2023/01/02 14:12:39;;;;;;;8.20;5.50;;;;;;;13.39;70.52;98862.17;420929;1295;99260;-40
2023/01/02 14:22:50;;;;;;;8.70;6.10;;;;;;;13.15;70.41;98846.91;420915;1298;107628;-42
2023/01/02 14:33:02;;;;;;;11.50;6.80;;;;;;;12.87;70.80;98834.00;420940;1291;98017;-42
2023/01/02 14:53:37;;;;;;;10.70;8.10;;;;;;;12.42;71.48;98823.90;420959;1299;108834;-41
2023/01/02 15:03:42;;;;;;;17.90;9.70;;;;;;;12.21;71.91;98841.42;420930;1291;98032;-40
2023/01/02 15:13:54;;;;;;;15.80;11.40;;;;;;;11.91;72.21;98837.40;420896;1298;107385;-40
2023/01/02 15:24:16;;;;;;;20.90;13.00;;;;;;;11.64;72.51;98835.75;420951;1298;97992;-41
2023/01/02 15:34:25;;;;;;;17.80;11.50;;;;;;;11.50;72.87;98841.98;420949;1295;112128;-40
2023/01/02 15:54:59;;;;;;;29.00;13.90;;;;;;;11.21;73.65;98865.66;420854;1295;99223;-40
2023/01/02 16:05:11;;;;;;;30.10;16.10;;;;;;;11.07;73.91;98877.52;420887;1298;107106;-41
2023/01/02 16:15:21;;;;;;;23.40;12.90;;;;;;;10.91;74.36;98884.45;421024;1298;99289;-41
2023/01/02 16:25:31;;;;;;;21.10;11.70;;;;;;;10.80;74.97;98877.11;420883;1291;112006;-40
2023/01/02 16:35:38;;;;;;;20.00;12.10;;;;;;;10.67;75.40;98871.44;420875;1292;105809;-41
2023/01/02 16:45:48;;;;;;;23.80;13.70;;;;;;;10.52;75.81;98863.61;420848;1298;99154;-42
2023/01/02 16:55:55;;;;;;;31.50;16.40;;;;;;;10.37;76.16;98871.41;420889;1292;107396;-41
2023/01/02 17:06:06;;;;;;;33.50;18.10;;;;;;;10.19;76.46;98893.45;420953;1298;98034;-41
2023/01/02 17:26:20;;;;;;;22.40;13.80;;;;;;;9.92;77.55;98896.96;420840;1283;108241;-40
2023/01/02 17:36:27;;;;;;;21.80;13.70;;;;;;;9.84;77.76;98909.47;420821;1289;99045;-42
2023/01/02 17:46:35;;;;;;;25.50;15.90;;;;;;;9.75;78.02;98910.98;420764;1295;109331;-41
2023/01/02 17:57:03;;;;;;;32.90;18.00;;;;;;;9.61;78.29;98909.27;420773;1287;98026;-40
2023/01/02 18:07:10;;;;;;;32.60;18.40;;;;;;;9.51;78.54;98903.36;420860;1298;113100;-40
2023/01/02 18:27:35;;;;;;;35.90;21.10;;;;;;;9.29;78.85;98898.17;420923;1295;98426;-41
2023/01/02 18:37:43;;;;;;;41.50;23.70;;;;;;;9.10;79.32;98903.35;420839;1295;108517;-40
2023/01/02 18:47:54;;;;;;;38.10;21.20;;;;;;;8.97;79.32;98893.31;420777;1286;99122;-40
2023/01/02 18:57:58;;;;;;;37.90;22.60;;;;;;;8.89;79.64;98894.74;420830;1298;111789;-41
2023/01/02 19:08:12;;;;;;;34.90;22.10;;;;;;;8.83;79.79;98917.38;420963;1299;106883;-41
2023/01/02 19:28:41;;;;;;;41.60;22.90;;;;;;;8.70;79.99;98921.61;420868;1305;107937;-40
2023/01/02 19:38:49;;;;;;;35.50;22.00;;;;;;;8.60;80.27;98914.36;420971;1298;99239;-40
2023/01/02 19:48:57;;;;;;;37.70;20.90;;;;;;;8.56;80.53;98910.25;420854;1298;111130;-41
2023/01/02 19:59:04;;;;;;;58.70;24.80;;;;;;;8.51;80.73;98913.83;420816;1298;108324;-41
2023/01/02 20:09:20;;;;;;;39.70;22.50;;;;;;;8.42;81.07;98957.40;420808;1296;98093;-41
2023/01/02 20:19:26;;;;;;;;;;;;;;;8.34;81.16;98964.71;420905;1299;106560;-41
2023/01/02 20:29:34;;;;;;;33.20;19.30;;;;;;;8.23;81.16;98974.36;420746;1299;98022;-41
2023/01/02 20:39:41;;;;;;;38.70;24.30;;;;;;;8.17;81.35;98980.09;420870;1287;111959;-40
2023/01/02 20:49:48;;;;;;;31.90;18.20;;;;;;;8.12;81.32;99000.98;420779;1292;108007;-40
2023/01/02 20:59:56;;;;;;;27.90;16.50;;;;;;;8.03;81.40;99000.82;420848;1304;99256;-41
2023/01/02 21:10:03;;;;;;;32.40;19.50;;;;;;;7.91;81.58;98996.93;420878;1296;107779;-40
2023/01/02 21:20:09;;;;;;;30.80;17.70;;;;;;;7.87;81.81;99004.15;420865;1292;101574;-39
2023/01/02 21:30:16;;;;;;;32.30;17.90;;;;;;;7.84;81.79;99020.68;420970;1289;112485;-41
2023/01/02 21:40:24;;;;;;;35.50;18.90;;;;;;;7.79;81.97;99021.52;420876;1303;106595;-40
2023/01/02 21:50:30;;;;;;;27.10;15.70;;;;;;;7.78;82.04;99022.16;420892;1303;99259;-41
2023/01/02 22:00:37;;;;;;;23.00;13.40;;;;;;;7.77;82.18;99030.41;420824;1299;108636;-41
2023/01/02 22:10:44;;;;;;;25.10;16.00;;;;;;;7.77;82.26;99036.09;420823;1294;98008;-41
2023/01/02 22:20:51;;;;;;;23.40;12.70;;;;;;;7.73;82.33;99050.99;420900;1301;111799;-40
2023/01/02 22:30:59;;;;;;;17.60;12.80;;;;;;;7.72;82.43;99056.73;420923;1290;109314;-40
2023/01/02 22:41:05;;;;;;;22.20;12.70;;;;;;;7.69;82.43;99066.55;420953;1295;99220;-41
2023/01/02 22:51:15;;;;;;;19.70;11.70;;;;;;;7.66;82.39;99062.98;420924;1297;106950;-40
2023/01/02 23:01:23;;;;;;;22.00;12.60;;;;;;;7.60;82.61;99069.13;420833;1295;98029;-41
2023/01/02 23:11:31;;;;;;;18.30;11.00;;;;;;;7.58;82.54;99061.19;420976;1287;111521;-39
2023/01/02 23:21:39;;;;;;;15.20;9.70;;;;;;;7.56;82.83;99059.30;420775;1298;108434;-41
2023/01/02 23:31:48;;;;;;;15.00;9.50;;;;;;;7.58;82.84;99062.73;420876;1299;98377;-40
2023/01/02 23:41:56;;;;;;;15.70;10.30;;;;;;;7.61;82.85;99062.34;420975;1300;107731;-41
